Worcester, Massachusetts
Current Conditions -  °F | °C
As of 11:54 PM on Friday 24 Oct 2014 (Local Time) from KORH Reporting Station
Scattered Clouds Scattered Clouds  
Wind Chill: 40°   Ceiling: Unl
Heat Index: 46°   Visibility: 10mi
Dew Point: 40°   Wind: 13mph
Humidity: 79%   Direction: 320°NW
Pressure: 29.75"   Gusts: NA
Location:  42.26°N, 71.8°W
Report Text: KORH 250354Z AUTO 32011KT 10SM SCT016 08/04 A2975 RMK AO2 SLP079 T00780044 $
Loading
Personal Weather Stations






























Interactive Weather Map New forecast layout! Learn more

10-Day Weather Forecast

Advertisements
Track Severe Weather on mobile